sensor_id;sensor_type;location;lat;lon;timestamp;temperature;humidity
702;DHT22;334;48.808;9.222;2022-10-17T00:00:06;17.50;21.40
702;DHT22;334;48.808;9.222;2022-10-17T00:01:08;17.60;21.50
702;DHT22;334;48.808;9.222;2022-10-17T00:02:11;17.50;21.40
702;DHT22;334;48.808;9.222;2022-10-17T00:03:15;17.50;21.40
702;DHT22;334;48.808;9.222;2022-10-17T00:04:18;17.50;21.40
702;DHT22;334;48.808;9.222;2022-10-17T00:05:20;17.50;21.50
702;DHT22;334;48.808;9.222;2022-10-17T00:06:23;17.50;21.40
702;DHT22;334;48.808;9.222;2022-10-17T00:07:25;17.50;21.00
702;DHT22;334;48.808;9.222;2022-10-17T00:08:27;17.60;21.00
702;DHT22;334;48.808;9.222;2022-10-17T00:09:29;17.40;21.00
702;DHT22;334;48.808;9.222;2022-10-17T00:10:30;17.40;21.30
702;DHT22;334;48.808;9.222;2022-10-17T00:11:34;17.30;21.30
702;DHT22;334;48.808;9.222;2022-10-17T00:12:36;17.30;21.30
702;DHT22;334;48.808;9.222;2022-10-17T00:13:38;17.30;21.30
702;DHT22;334;48.808;9.222;2022-10-17T00:14:40;17.40;21.40
702;DHT22;334;48.808;9.222;2022-10-17T00:15:43;17.30;21.30
702;DHT22;334;48.808;9.222;2022-10-17T00:16:45;17.30;21.30
702;DHT22;334;48.808;9.222;2022-10-17T00:17:47;17.30;21.30
702;DHT22;334;48.808;9.222;2022-10-17T00:18:48;17.30;21.30
702;DHT22;334;48.808;9.222;2022-10-17T00:19:50;17.50;21.40
702;DHT22;334;48.808;9.222;2022-10-17T00:20:52;17.30;21.30
702;DHT22;334;48.808;9.222;2022-10-17T00:21:54;17.30;21.30
702;DHT22;334;48.808;9.222;2022-10-17T00:22:56;17.30;20.90
702;DHT22;334;48.808;9.222;2022-10-17T00:23:59;17.30;21.00
702;DHT22;334;48.808;9.222;2022-10-17T00:25:02;17.30;21.30
702;DHT22;334;48.808;9.222;2022-10-17T00:26:05;17.30;21.30
702;DHT22;334;48.808;9.222;2022-10-17T00:27:07;17.30;21.30
702;DHT22;334;48.808;9.222;2022-10-17T00:28:10;17.30;21.30
702;DHT22;334;48.808;9.222;2022-10-17T00:29:12;17.30;20.80
702;DHT22;334;48.808;9.222;2022-10-17T00:30:15;17.30;20.90
702;DHT22;334;48.808;9.222;2022-10-17T00:31:18;17.30;21.30
702;DHT22;334;48.808;9.222;2022-10-17T00:32:20;17.40;21.40
702;DHT22;334;48.808;9.222;2022-10-17T00:33:23;17.30;21.30
702;DHT22;334;48.808;9.222;2022-10-17T00:34:24;17.30;21.30
702;DHT22;334;48.808;9.222;2022-10-17T00:35:26;17.30;21.30
702;DHT22;334;48.808;9.222;2022-10-17T00:36:28;17.30;21.00
702;DHT22;334;48.808;9.222;2022-10-17T00:37:32;17.30;20.80
702;DHT22;334;48.808;9.222;2022-10-17T00:38:36;17.30;20.70
702;DHT22;334;48.808;9.222;2022-10-17T00:39:38;17.30;20.70
702;DHT22;334;48.808;9.222;2022-10-17T00:40:40;17.30;20.50
702;DHT22;334;48.808;9.222;2022-10-17T00:41:42;17.30;20.50
702;DHT22;334;48.808;9.222;2022-10-17T00:42:43;17.20;20.60
702;DHT22;334;48.808;9.222;2022-10-17T00:43:55;17.20;20.80
702;DHT22;334;48.808;9.222;2022-10-17T00:46:15;17.20;21.80
702;DHT22;334;48.808;9.222;2022-10-17T00:47:19;17.30;20.90
702;DHT22;334;48.808;9.222;2022-10-17T00:48:23;17.20;21.20
702;DHT22;334;48.808;9.222;2022-10-17T00:49:30;17.20;21.20
702;DHT22;334;48.808;9.222;2022-10-17T00:50:34;17.20;21.20
702;DHT22;334;48.808;9.222;2022-10-17T00:51:44;17.20;21.20
702;DHT22;334;48.808;9.222;2022-10-17T00:52:46;17.20;20.90
702;DHT22;334;48.808;9.222;2022-10-17T00:53:49;17.10;20.90
702;DHT22;334;48.808;9.222;2022-10-17T00:55:02;17.20;21.00
702;DHT22;334;48.808;9.222;2022-10-17T00:56:05;17.10;21.20
702;DHT22;334;48.808;9.222;2022-10-17T00:57:07;17.10;21.20
702;DHT22;334;48.808;9.222;2022-10-17T00:58:09;17.20;21.20
702;DHT22;334;48.808;9.222;2022-10-17T00:59:12;17.10;21.20
702;DHT22;334;48.808;9.222;2022-10-17T01:00:16;17.20;21.20
702;DHT22;334;48.808;9.222;2022-10-17T01:01:18;17.20;21.20
702;DHT22;334;48.808;9.222;2022-10-17T01:02:21;17.10;21.20
702;DHT22;334;48.808;9.222;2022-10-17T01:03:23;17.10;21.20
702;DHT22;334;48.808;9.222;2022-10-17T01:04:25;17.10;21.20
702;DHT22;334;48.808;9.222;2022-10-17T01:05:27;17.10;21.20
702;DHT22;334;48.808;9.222;2022-10-17T01:06:29;17.10;21.20
702;DHT22;334;48.808;9.222;2022-10-17T01:07:31;17.20;21.20
702;DHT22;334;48.808;9.222;2022-10-17T01:08:38;17.10;21.20
702;DHT22;334;48.808;9.222;2022-10-17T01:09:43;17.10;21.20
702;DHT22;334;48.808;9.222;2022-10-17T01:12:55;17.00;21.20
702;DHT22;334;48.808;9.222;2022-10-17T01:14:06;17.00;21.10
702;DHT22;334;48.808;9.222;2022-10-17T01:15:37;17.00;21.70
702;DHT22;334;48.808;9.222;2022-10-17T01:16:57;17.00;21.70
702;DHT22;334;48.808;9.222;2022-10-17T01:19:50;16.90;22.00
702;DHT22;334;48.808;9.222;2022-10-17T01:21:20;16.90;22.60
702;DHT22;334;48.808;9.222;2022-10-17T01:25:20;16.80;22.50
702;DHT22;334;48.808;9.222;2022-10-17T01:28:31;16.90;22.30
702;DHT22;334;48.808;9.222;2022-10-17T01:32:18;16.80;22.50
702;DHT22;334;48.808;9.222;2022-10-17T01:33:42;16.90;22.60
702;DHT22;334;48.808;9.222;2022-10-17T01:34:58;16.80;22.50
702;DHT22;334;48.808;9.222;2022-10-17T01:36:25;16.80;22.40
702;DHT22;334;48.808;9.222;2022-10-17T01:37:33;16.80;22.60
702;DHT22;334;48.808;9.222;2022-10-17T01:38:46;16.70;22.50
702;DHT22;334;48.808;9.222;2022-10-17T01:39:53;16.80;22.70
702;DHT22;334;48.808;9.222;2022-10-17T01:42:21;16.80;22.50
702;DHT22;334;48.808;9.222;2022-10-17T01:43:40;16.80;22.30
702;DHT22;334;48.808;9.222;2022-10-17T01:45:36;16.80;22.60
702;DHT22;334;48.808;9.222;2022-10-17T01:46:31;16.80;22.70
702;DHT22;334;48.808;9.222;2022-10-17T01:47:35;16.80;22.00
702;DHT22;334;48.808;9.222;2022-10-17T01:48:37;16.70;22.10
702;DHT22;334;48.808;9.222;2022-10-17T01:49:42;16.70;22.40
702;DHT22;334;48.808;9.222;2022-10-17T01:51:02;16.70;23.10
702;DHT22;334;48.808;9.222;2022-10-17T01:52:13;16.70;22.50
702;DHT22;334;48.808;9.222;2022-10-17T01:53:20;16.70;22.30
702;DHT22;334;48.808;9.222;2022-10-17T01:54:31;16.70;22.10
702;DHT22;334;48.808;9.222;2022-10-17T01:55:39;16.70;22.10
702;DHT22;334;48.808;9.222;2022-10-17T01:56:43;16.70;22.30
702;DHT22;334;48.808;9.222;2022-10-17T01:57:51;16.70;22.20
702;DHT22;334;48.808;9.222;2022-10-17T01:58:59;16.70;22.30
702;DHT22;334;48.808;9.222;2022-10-17T02:00:05;16.70;22.10
702;DHT22;334;48.808;9.222;2022-10-17T02:01:10;16.70;22.20
702;DHT22;334;48.808;9.222;2022-10-17T02:02:13;16.70;22.20
702;DHT22;334;48.808;9.222;2022-10-17T02:03:18;16.70;22.40
702;DHT22;334;48.808;9.222;2022-10-17T02:04:21;16.70;22.30
702;DHT22;334;48.808;9.222;2022-10-17T02:05:31;16.80;21.80
702;DHT22;334;48.808;9.222;2022-10-17T02:06:37;16.70;21.70
702;DHT22;334;48.808;9.222;2022-10-17T02:07:40;16.70;21.80
702;DHT22;334;48.808;9.222;2022-10-17T02:08:45;16.70;21.80
702;DHT22;334;48.808;9.222;2022-10-17T02:09:48;16.70;21.70
702;DHT22;334;48.808;9.222;2022-10-17T02:11:23;16.70;21.50
702;DHT22;334;48.808;9.222;2022-10-17T02:12:49;16.70;21.50
702;DHT22;334;48.808;9.222;2022-10-17T02:14:19;16.70;21.70
702;DHT22;334;48.808;9.222;2022-10-17T02:19:29;16.70;21.70
702;DHT22;334;48.808;9.222;2022-10-17T02:23:11;16.60;22.10
702;DHT22;334;48.808;9.222;2022-10-17T02:24:42;16.60;22.20
702;DHT22;334;48.808;9.222;2022-10-17T02:28:30;16.60;21.90
702;DHT22;334;48.808;9.222;2022-10-17T02:29:47;16.60;21.70
702;DHT22;334;48.808;9.222;2022-10-17T02:30:54;16.60;21.80
702;DHT22;334;48.808;9.222;2022-10-17T02:33:07;16.60;21.90
702;DHT22;334;48.808;9.222;2022-10-17T02:34:41;16.50;21.90
702;DHT22;334;48.808;9.222;2022-10-17T02:35:46;16.50;22.10
702;DHT22;334;48.808;9.222;2022-10-17T02:36:52;16.50;21.80
702;DHT22;334;48.808;9.222;2022-10-17T02:37:56;16.50;21.50
702;DHT22;334;48.808;9.222;2022-10-17T02:39:00;16.50;21.60
702;DHT22;334;48.808;9.222;2022-10-17T02:40:06;16.50;21.70
702;DHT22;334;48.808;9.222;2022-10-17T02:41:11;16.50;21.60
702;DHT22;334;48.808;9.222;2022-10-17T02:42:15;16.50;21.60
702;DHT22;334;48.808;9.222;2022-10-17T02:43:19;16.50;21.50
702;DHT22;334;48.808;9.222;2022-10-17T02:44:22;16.50;21.80
702;DHT22;334;48.808;9.222;2022-10-17T02:45:27;16.50;21.80
702;DHT22;334;48.808;9.222;2022-10-17T02:46:29;16.50;21.80
702;DHT22;334;48.808;9.222;2022-10-17T02:47:37;16.50;21.70
702;DHT22;334;48.808;9.222;2022-10-17T02:48:50;16.50;21.70
702;DHT22;334;48.808;9.222;2022-10-17T02:49:56;16.50;21.70
702;DHT22;334;48.808;9.222;2022-10-17T02:51:23;16.50;21.70
702;DHT22;334;48.808;9.222;2022-10-17T02:52:35;16.50;21.80
702;DHT22;334;48.808;9.222;2022-10-17T02:53:54;16.50;22.00
702;DHT22;334;48.808;9.222;2022-10-17T02:56:26;16.50;21.90
702;DHT22;334;48.808;9.222;2022-10-17T02:58:37;16.50;21.80
702;DHT22;334;48.808;9.222;2022-10-17T02:59:42;16.50;21.70
702;DHT22;334;48.808;9.222;2022-10-17T03:00:45;16.40;21.70
702;DHT22;334;48.808;9.222;2022-10-17T03:01:49;16.50;21.40
702;DHT22;334;48.808;9.222;2022-10-17T03:02:52;16.50;21.50
702;DHT22;334;48.808;9.222;2022-10-17T03:04:24;16.50;21.50
702;DHT22;334;48.808;9.222;2022-10-17T03:05:28;16.50;21.50
702;DHT22;334;48.808;9.222;2022-10-17T03:06:30;16.40;21.20
702;DHT22;334;48.808;9.222;2022-10-17T03:07:31;16.50;20.90
702;DHT22;334;48.808;9.222;2022-10-17T03:08:33;16.40;20.80
702;DHT22;334;48.808;9.222;2022-10-17T03:09:36;16.40;20.70
702;DHT22;334;48.808;9.222;2022-10-17T03:10:38;16.40;20.70
702;DHT22;334;48.808;9.222;2022-10-17T03:11:39;16.50;20.80
702;DHT22;334;48.808;9.222;2022-10-17T03:12:41;16.40;20.70
702;DHT22;334;48.808;9.222;2022-10-17T03:13:44;16.40;20.70
702;DHT22;334;48.808;9.222;2022-10-17T03:14:46;16.40;20.70
702;DHT22;334;48.808;9.222;2022-10-17T03:15:47;16.40;20.70
702;DHT22;334;48.808;9.222;2022-10-17T03:16:49;16.40;20.70
702;DHT22;334;48.808;9.222;2022-10-17T03:17:51;16.40;20.70
702;DHT22;334;48.808;9.222;2022-10-17T03:18:52;16.40;20.70
702;DHT22;334;48.808;9.222;2022-10-17T03:19:54;16.40;20.70
702;DHT22;334;48.808;9.222;2022-10-17T03:20:57;16.40;20.70
702;DHT22;334;48.808;9.222;2022-10-17T03:21:59;16.40;20.70
702;DHT22;334;48.808;9.222;2022-10-17T03:23:01;16.40;20.70
702;DHT22;334;48.808;9.222;2022-10-17T03:24:03;16.40;20.70
702;DHT22;334;48.808;9.222;2022-10-17T03:25:06;16.40;20.70
702;DHT22;334;48.808;9.222;2022-10-17T03:26:08;16.30;20.60
702;DHT22;334;48.808;9.222;2022-10-17T03:27:10;16.30;20.60
702;DHT22;334;48.808;9.222;2022-10-17T03:28:12;16.40;20.70
702;DHT22;334;48.808;9.222;2022-10-17T03:29:17;16.40;20.70
702;DHT22;334;48.808;9.222;2022-10-17T03:30:19;16.30;20.60
702;DHT22;334;48.808;9.222;2022-10-17T03:31:21;16.40;20.70
702;DHT22;334;48.808;9.222;2022-10-17T03:32:23;16.40;20.70
702;DHT22;334;48.808;9.222;2022-10-17T03:33:25;16.40;20.70
702;DHT22;334;48.808;9.222;2022-10-17T03:34:27;16.40;20.70
702;DHT22;334;48.808;9.222;2022-10-17T03:35:29;16.30;20.60
702;DHT22;334;48.808;9.222;2022-10-17T03:36:30;16.30;20.20
702;DHT22;334;48.808;9.222;2022-10-17T03:37:33;16.30;20.50
702;DHT22;334;48.808;9.222;2022-10-17T03:38:35;16.30;20.60
702;DHT22;334;48.808;9.222;2022-10-17T03:39:37;16.20;20.60
702;DHT22;334;48.808;9.222;2022-10-17T03:40:39;16.20;20.60
702;DHT22;334;48.808;9.222;2022-10-17T03:41:43;16.20;20.60
702;DHT22;334;48.808;9.222;2022-10-17T03:42:44;16.20;20.60
702;DHT22;334;48.808;9.222;2022-10-17T03:43:47;16.20;21.00
702;DHT22;334;48.808;9.222;2022-10-17T03:44:49;16.20;21.20
702;DHT22;334;48.808;9.222;2022-10-17T03:45:50;16.20;21.00
702;DHT22;334;48.808;9.222;2022-10-17T03:46:52;16.20;21.20
702;DHT22;334;48.808;9.222;2022-10-17T03:47:54;16.20;21.20
702;DHT22;334;48.808;9.222;2022-10-17T03:48:56;16.20;21.10
702;DHT22;334;48.808;9.222;2022-10-17T03:49:57;16.20;21.10
702;DHT22;334;48.808;9.222;2022-10-17T03:51:03;16.20;21.20
702;DHT22;334;48.808;9.222;2022-10-17T03:52:09;16.20;21.70
702;DHT22;334;48.808;9.222;2022-10-17T03:53:11;16.20;21.10
702;DHT22;334;48.808;9.222;2022-10-17T03:54:14;16.20;21.10
702;DHT22;334;48.808;9.222;2022-10-17T03:55:16;16.20;21.20
702;DHT22;334;48.808;9.222;2022-10-17T03:56:20;16.20;20.70
702;DHT22;334;48.808;9.222;2022-10-17T03:57:24;16.20;20.60
702;DHT22;334;48.808;9.222;2022-10-17T03:58:26;16.20;20.60
702;DHT22;334;48.808;9.222;2022-10-17T03:59:29;16.20;21.00
702;DHT22;334;48.808;9.222;2022-10-17T04:00:31;16.20;21.00
702;DHT22;334;48.808;9.222;2022-10-17T04:01:32;16.20;21.20
702;DHT22;334;48.808;9.222;2022-10-17T04:02:34;16.10;21.40
702;DHT22;334;48.808;9.222;2022-10-17T04:03:36;16.20;21.40
702;DHT22;334;48.808;9.222;2022-10-17T04:04:38;16.10;21.10
702;DHT22;334;48.808;9.222;2022-10-17T04:05:40;16.30;21.40
702;DHT22;334;48.808;9.222;2022-10-17T04:06:41;16.10;21.40
702;DHT22;334;48.808;9.222;2022-10-17T04:07:43;16.10;21.40
702;DHT22;334;48.808;9.222;2022-10-17T04:08:45;16.10;21.40
702;DHT22;334;48.808;9.222;2022-10-17T04:09:47;16.10;21.70
702;DHT22;334;48.808;9.222;2022-10-17T04:10:50;16.10;21.60
702;DHT22;334;48.808;9.222;2022-10-17T04:11:52;16.10;21.60
702;DHT22;334;48.808;9.222;2022-10-17T04:12:54;16.10;21.70
702;DHT22;334;48.808;9.222;2022-10-17T04:13:57;16.10;21.40
702;DHT22;334;48.808;9.222;2022-10-17T04:15:00;16.10;21.30
702;DHT22;334;48.808;9.222;2022-10-17T04:16:05;16.10;21.30
702;DHT22;334;48.808;9.222;2022-10-17T04:17:07;16.20;21.40
702;DHT22;334;48.808;9.222;2022-10-17T04:18:08;16.20;21.20
702;DHT22;334;48.808;9.222;2022-10-17T04:19:12;16.10;21.20
702;DHT22;334;48.808;9.222;2022-10-17T04:20:14;16.20;21.20
702;DHT22;334;48.808;9.222;2022-10-17T04:21:16;16.20;21.10
702;DHT22;334;48.808;9.222;2022-10-17T04:22:18;16.20;21.20
702;DHT22;334;48.808;9.222;2022-10-17T04:23:20;16.30;21.30
702;DHT22;334;48.808;9.222;2022-10-17T04:24:22;16.20;21.20
702;DHT22;334;48.808;9.222;2022-10-17T04:25:23;16.20;21.30
702;DHT22;334;48.808;9.222;2022-10-17T04:26:26;16.20;21.40
702;DHT22;334;48.808;9.222;2022-10-17T04:27:28;16.30;21.30
702;DHT22;334;48.808;9.222;2022-10-17T04:28:30;16.30;21.30
702;DHT22;334;48.808;9.222;2022-10-17T04:29:32;16.30;21.30
702;DHT22;334;48.808;9.222;2022-10-17T04:30:34;16.30;21.10
702;DHT22;334;48.808;9.222;2022-10-17T04:31:37;16.30;20.60
702;DHT22;334;48.808;9.222;2022-10-17T04:32:39;16.20;20.60
702;DHT22;334;48.808;9.222;2022-10-17T04:33:45;16.20;20.60
702;DHT22;334;48.808;9.222;2022-10-17T04:34:48;16.20;20.90
702;DHT22;334;48.808;9.222;2022-10-17T04:36:01;16.20;21.20
702;DHT22;334;48.808;9.222;2022-10-17T04:37:03;16.20;21.60
702;DHT22;334;48.808;9.222;2022-10-17T04:38:05;16.20;21.40
702;DHT22;334;48.808;9.222;2022-10-17T04:39:06;16.20;21.50
702;DHT22;334;48.808;9.222;2022-10-17T04:40:09;16.20;21.30
702;DHT22;334;48.808;9.222;2022-10-17T04:41:14;16.20;21.30
702;DHT22;334;48.808;9.222;2022-10-17T04:42:15;16.20;21.40
702;DHT22;334;48.808;9.222;2022-10-17T04:43:17;16.20;21.60
702;DHT22;334;48.808;9.222;2022-10-17T04:44:19;16.20;21.60
702;DHT22;334;48.808;9.222;2022-10-17T04:45:21;16.40;21.80
702;DHT22;334;48.808;9.222;2022-10-17T04:46:23;16.40;22.00
702;DHT22;334;48.808;9.222;2022-10-17T04:47:24;16.20;21.70
702;DHT22;334;48.808;9.222;2022-10-17T04:48:27;16.30;21.90
702;DHT22;334;48.808;9.222;2022-10-17T04:49:30;16.30;21.80
702;DHT22;334;48.808;9.222;2022-10-17T04:50:32;16.30;21.80
702;DHT22;334;48.808;9.222;2022-10-17T04:51:34;16.30;22.00
702;DHT22;334;48.808;9.222;2022-10-17T04:52:36;16.30;21.70
702;DHT22;334;48.808;9.222;2022-10-17T04:53:39;16.30;21.70
702;DHT22;334;48.808;9.222;2022-10-17T04:54:41;16.30;21.60
702;DHT22;334;48.808;9.222;2022-10-17T04:55:43;16.30;21.40
702;DHT22;334;48.808;9.222;2022-10-17T04:56:44;16.30;21.50
702;DHT22;334;48.808;9.222;2022-10-17T04:57:48;16.30;21.20
702;DHT22;334;48.808;9.222;2022-10-17T04:58:50;16.30;21.30
702;DHT22;334;48.808;9.222;2022-10-17T04:59:52;16.20;21.20
702;DHT22;334;48.808;9.222;2022-10-17T05:00:55;16.20;21.20
702;DHT22;334;48.808;9.222;2022-10-17T05:01:57;16.20;21.50
702;DHT22;334;48.808;9.222;2022-10-17T05:03:01;16.20;21.70
702;DHT22;334;48.808;9.222;2022-10-17T05:04:03;16.20;21.60
702;DHT22;334;48.808;9.222;2022-10-17T05:05:05;16.20;21.80
702;DHT22;334;48.808;9.222;2022-10-17T05:06:12;16.20;21.70
702;DHT22;334;48.808;9.222;2022-10-17T05:07:14;16.20;21.70
702;DHT22;334;48.808;9.222;2022-10-17T05:08:16;16.20;21.50
702;DHT22;334;48.808;9.222;2022-10-17T05:09:18;16.10;21.50
702;DHT22;334;48.808;9.222;2022-10-17T05:10:19;16.10;21.80
702;DHT22;334;48.808;9.222;2022-10-17T05:11:24;16.10;21.80
702;DHT22;334;48.808;9.222;2022-10-17T05:12:26;16.10;22.00
702;DHT22;334;48.808;9.222;2022-10-17T05:13:28;16.10;21.70
702;DHT22;334;48.808;9.222;2022-10-17T05:14:31;16.10;21.80
702;DHT22;334;48.808;9.222;2022-10-17T05:15:33;16.10;22.00
702;DHT22;334;48.808;9.222;2022-10-17T05:16:37;16.10;22.20
702;DHT22;334;48.808;9.222;2022-10-17T05:17:40;16.10;22.30
702;DHT22;334;48.808;9.222;2022-10-17T05:18:42;16.10;22.40
702;DHT22;334;48.808;9.222;2022-10-17T05:19:44;16.10;22.30
702;DHT22;334;48.808;9.222;2022-10-17T05:20:46;16.10;22.10
702;DHT22;334;48.808;9.222;2022-10-17T05:21:48;16.20;22.10
702;DHT22;334;48.808;9.222;2022-10-17T05:22:50;16.20;21.90
702;DHT22;334;48.808;9.222;2022-10-17T05:23:53;16.20;21.90
702;DHT22;334;48.808;9.222;2022-10-17T05:24:58;16.20;21.90
702;DHT22;334;48.808;9.222;2022-10-17T05:26:01;16.20;21.70
702;DHT22;334;48.808;9.222;2022-10-17T05:27:03;16.30;21.60
702;DHT22;334;48.808;9.222;2022-10-17T05:28:05;16.30;21.50
702;DHT22;334;48.808;9.222;2022-10-17T05:29:06;16.30;21.40
702;DHT22;334;48.808;9.222;2022-10-17T05:30:09;16.30;21.30
702;DHT22;334;48.808;9.222;2022-10-17T05:31:11;16.30;21.00
702;DHT22;334;48.808;9.222;2022-10-17T05:32:15;16.30;20.70
702;DHT22;334;48.808;9.222;2022-10-17T05:33:16;16.30;20.60
702;DHT22;334;48.808;9.222;2022-10-17T05:34:19;16.30;20.70
702;DHT22;334;48.808;9.222;2022-10-17T05:35:21;16.30;20.60
702;DHT22;334;48.808;9.222;2022-10-17T05:36:23;16.30;20.60
702;DHT22;334;48.808;9.222;2022-10-17T05:37:28;16.30;20.60
702;DHT22;334;48.808;9.222;2022-10-17T05:38:31;16.30;20.60
702;DHT22;334;48.808;9.222;2022-10-17T05:39:34;16.30;20.60
702;DHT22;334;48.808;9.222;2022-10-17T05:40:36;16.30;20.60
702;DHT22;334;48.808;9.222;2022-10-17T05:41:45;16.30;20.60
702;DHT22;334;48.808;9.222;2022-10-17T05:42:48;16.30;20.60
702;DHT22;334;48.808;9.222;2022-10-17T05:43:52;16.30;20.70
702;DHT22;334;48.808;9.222;2022-10-17T05:44:54;16.20;20.60
702;DHT22;334;48.808;9.222;2022-10-17T05:45:56;16.20;20.60
702;DHT22;334;48.808;9.222;2022-10-17T05:46:59;16.20;20.60
702;DHT22;334;48.808;9.222;2022-10-17T05:48:02;16.20;20.60
702;DHT22;334;48.808;9.222;2022-10-17T05:49:04;16.20;20.60
702;DHT22;334;48.808;9.222;2022-10-17T05:50:27;16.20;20.60
702;DHT22;334;48.808;9.222;2022-10-17T05:51:32;16.20;20.60
702;DHT22;334;48.808;9.222;2022-10-17T05:52:34;16.20;20.60
702;DHT22;334;48.808;9.222;2022-10-17T05:53:39;16.20;20.60
702;DHT22;334;48.808;9.222;2022-10-17T05:54:41;16.20;20.60
702;DHT22;334;48.808;9.222;2022-10-17T05:55:43;16.20;20.60
702;DHT22;334;48.808;9.222;2022-10-17T05:56:45;16.20;20.60
702;DHT22;334;48.808;9.222;2022-10-17T05:57:53;16.20;20.60
702;DHT22;334;48.808;9.222;2022-10-17T05:58:56;16.20;20.60
702;DHT22;334;48.808;9.222;2022-10-17T06:00:02;16.20;20.30
702;DHT22;334;48.808;9.222;2022-10-17T06:01:05;16.20;20.20
702;DHT22;334;48.808;9.222;2022-10-17T06:02:13;16.20;20.80
702;DHT22;334;48.808;9.222;2022-10-17T06:03:15;16.10;20.10
702;DHT22;334;48.808;9.222;2022-10-17T06:04:17;16.20;20.60
702;DHT22;334;48.808;9.222;2022-10-17T06:05:20;16.10;20.50
702;DHT22;334;48.808;9.222;2022-10-17T06:06:22;16.10;20.50
702;DHT22;334;48.808;9.222;2022-10-17T06:07:27;16.10;20.50
702;DHT22;334;48.808;9.222;2022-10-17T06:08:29;16.10;20.50
702;DHT22;334;48.808;9.222;2022-10-17T06:09:31;16.10;20.50
702;DHT22;334;48.808;9.222;2022-10-17T06:10:33;16.20;20.60
702;DHT22;334;48.808;9.222;2022-10-17T06:11:35;16.10;20.50
702;DHT22;334;48.808;9.222;2022-10-17T06:12:39;16.20;20.60
702;DHT22;334;48.808;9.222;2022-10-17T06:13:42;16.20;20.60
702;DHT22;334;48.808;9.222;2022-10-17T06:14:44;16.20;20.60
702;DHT22;334;48.808;9.222;2022-10-17T06:15:48;16.20;20.60
702;DHT22;334;48.808;9.222;2022-10-17T06:16:51;16.20;20.60
702;DHT22;334;48.808;9.222;2022-10-17T06:17:54;16.20;20.50
702;DHT22;334;48.808;9.222;2022-10-17T06:18:55;16.30;20.60
702;DHT22;334;48.808;9.222;2022-10-17T06:19:57;16.20;20.50
702;DHT22;334;48.808;9.222;2022-10-17T06:21:08;16.20;20.40
702;DHT22;334;48.808;9.222;2022-10-17T06:22:10;16.20;20.40
702;DHT22;334;48.808;9.222;2022-10-17T06:23:12;16.20;20.10
702;DHT22;334;48.808;9.222;2022-10-17T06:24:15;16.20;20.00
702;DHT22;334;48.808;9.222;2022-10-17T06:25:17;16.30;19.80
702;DHT22;334;48.808;9.222;2022-10-17T06:26:19;16.20;19.90
702;DHT22;334;48.808;9.222;2022-10-17T06:27:25;16.20;20.20
702;DHT22;334;48.808;9.222;2022-10-17T06:28:27;16.20;20.20
702;DHT22;334;48.808;9.222;2022-10-17T06:29:33;16.20;20.20
702;DHT22;334;48.808;9.222;2022-10-17T06:30:41;16.30;20.00
702;DHT22;334;48.808;9.222;2022-10-17T06:31:46;16.20;20.00
702;DHT22;334;48.808;9.222;2022-10-17T06:32:48;16.20;19.80
702;DHT22;334;48.808;9.222;2022-10-17T06:33:51;16.30;20.00
702;DHT22;334;48.808;9.222;2022-10-17T06:34:53;16.20;20.10
702;DHT22;334;48.808;9.222;2022-10-17T06:35:55;16.20;19.90
702;DHT22;334;48.808;9.222;2022-10-17T06:36:57;16.20;19.90
702;DHT22;334;48.808;9.222;2022-10-17T06:37:59;16.20;19.70
702;DHT22;334;48.808;9.222;2022-10-17T06:39:01;16.20;19.90
702;DHT22;334;48.808;9.222;2022-10-17T06:40:03;16.20;19.50
702;DHT22;334;48.808;9.222;2022-10-17T06:41:13;16.20;19.50
702;DHT22;334;48.808;9.222;2022-10-17T06:42:15;16.20;20.40
702;DHT22;334;48.808;9.222;2022-10-17T06:43:20;16.20;19.80
702;DHT22;334;48.808;9.222;2022-10-17T06:44:28;16.20;20.10
702;DHT22;334;48.808;9.222;2022-10-17T06:45:32;16.20;20.20
702;DHT22;334;48.808;9.222;2022-10-17T06:46:34;16.30;20.00
702;DHT22;334;48.808;9.222;2022-10-17T06:47:36;16.20;19.80
702;DHT22;334;48.808;9.222;2022-10-17T06:48:38;16.20;20.10
702;DHT22;334;48.808;9.222;2022-10-17T06:49:42;16.20;20.00
702;DHT22;334;48.808;9.222;2022-10-17T06:50:43;16.20;19.90
702;DHT22;334;48.808;9.222;2022-10-17T06:51:45;16.30;19.80
702;DHT22;334;48.808;9.222;2022-10-17T06:52:50;16.30;19.80
702;DHT22;334;48.808;9.222;2022-10-17T06:53:53;16.30;19.80
702;DHT22;334;48.808;9.222;2022-10-17T06:54:57;16.30;19.80
702;DHT22;334;48.808;9.222;2022-10-17T06:55:59;16.30;19.90
702;DHT22;334;48.808;9.222;2022-10-17T06:57:05;16.30;19.80
702;DHT22;334;48.808;9.222;2022-10-17T06:58:07;16.50;19.60
702;DHT22;334;48.808;9.222;2022-10-17T06:59:09;16.30;19.70
702;DHT22;334;48.808;9.222;2022-10-17T07:00:11;16.30;19.70
702;DHT22;334;48.808;9.222;2022-10-17T07:01:13;16.30;19.20
702;DHT22;334;48.808;9.222;2022-10-17T07:02:15;16.30;19.10
702;DHT22;334;48.808;9.222;2022-10-17T07:03:17;16.30;19.20
702;DHT22;334;48.808;9.222;2022-10-17T07:04:19;16.30;19.20
702;DHT22;334;48.808;9.222;2022-10-17T07:05:21;16.30;19.20
702;DHT22;334;48.808;9.222;2022-10-17T07:06:23;16.30;19.10
702;DHT22;334;48.808;9.222;2022-10-17T07:07:25;16.30;19.10
702;DHT22;334;48.808;9.222;2022-10-17T07:08:27;16.30;19.30
702;DHT22;334;48.808;9.222;2022-10-17T07:09:30;16.30;18.80
702;DHT22;334;48.808;9.222;2022-10-17T07:10:32;16.30;18.90
702;DHT22;334;48.808;9.222;2022-10-17T07:11:38;16.30;18.60
702;DHT22;334;48.808;9.222;2022-10-17T07:12:40;16.20;18.60
702;DHT22;334;48.808;9.222;2022-10-17T07:13:43;16.20;18.70
702;DHT22;334;48.808;9.222;2022-10-17T07:14:44;16.30;18.80
702;DHT22;334;48.808;9.222;2022-10-17T07:15:47;16.30;18.70
702;DHT22;334;48.808;9.222;2022-10-17T07:16:52;16.30;18.70
702;DHT22;334;48.808;9.222;2022-10-17T07:17:54;16.30;18.80
702;DHT22;334;48.808;9.222;2022-10-17T07:18:55;16.30;19.00
702;DHT22;334;48.808;9.222;2022-10-17T07:19:57;16.30;19.00
702;DHT22;334;48.808;9.222;2022-10-17T07:20:59;16.30;18.90
702;DHT22;334;48.808;9.222;2022-10-17T07:22:02;16.30;18.80
702;DHT22;334;48.808;9.222;2022-10-17T07:23:05;16.40;18.90
702;DHT22;334;48.808;9.222;2022-10-17T07:24:07;16.40;18.80
702;DHT22;334;48.808;9.222;2022-10-17T07:25:09;16.40;19.20
702;DHT22;334;48.808;9.222;2022-10-17T07:26:13;16.40;19.20
702;DHT22;334;48.808;9.222;2022-10-17T07:27:15;16.40;18.90
702;DHT22;334;48.808;9.222;2022-10-17T07:28:18;16.50;18.90
702;DHT22;334;48.808;9.222;2022-10-17T07:29:20;16.50;19.00
702;DHT22;334;48.808;9.222;2022-10-17T07:30:22;16.50;19.10
702;DHT22;334;48.808;9.222;2022-10-17T07:31:27;16.50;18.90
702;DHT22;334;48.808;9.222;2022-10-17T07:32:28;16.50;18.60
702;DHT22;334;48.808;9.222;2022-10-17T07:33:31;16.60;18.50
702;DHT22;334;48.808;9.222;2022-10-17T07:34:36;16.60;18.50
702;DHT22;334;48.808;9.222;2022-10-17T07:35:38;16.60;18.30
702;DHT22;334;48.808;9.222;2022-10-17T07:36:41;16.60;18.30
702;DHT22;334;48.808;9.222;2022-10-17T07:37:44;16.60;18.00
702;DHT22;334;48.808;9.222;2022-10-17T07:38:46;16.60;18.20
702;DHT22;334;48.808;9.222;2022-10-17T07:39:48;16.70;18.30
702;DHT22;334;48.808;9.222;2022-10-17T07:40:57;16.70;18.20